CheckWX is a tool to help pilots better visualize weather data.  It is not intended as a substitute for an official pre-flight weather briefing.

10:21:32 UTC

KCEF METAR
Westover ARB / Metropolitan Airport
Springfield/Chicopee, Massachusetts, USA
Current

26 mins ago

KCEF 220956Z AUTO 03003KT 7/8SM R23/3500VP6000FT BR CLR 09/09 A3016 RMK AO2 VIS 3/4V5 SLP219 T00930091
Observed
Sep-22 @ 09:56 UTC
Wind
  • 030° at 3 KTS
Visibility
.88 SM
Flight Rules
LIFR
Conditions
Mist
Cloud Levels
  • Clear skies
Temperature
C / 48°F
Dewpoint
C / 48°F
Humidity
100%
Altimeter
30.16" Hg
Pressure
1021.32 hPa
Previous

43 mins ago

KCEF 220939Z AUTO 01003KT 1 1/8SM BR CLR 10/10 A3016 RMK AO2 VIS 1V7 SLP218
Observed
Sep-22 @ 09:39 UTC
Wind
  • 010° at 3 KTS
Visibility
1.13 SM
Flight Rules
IFR
Conditions
Mist
Cloud Levels
  • Clear skies
Temperature
10°C / 50°F
Dewpoint
10°C / 50°F
Humidity
100%
Altimeter
30.16" Hg
Pressure
1021.32 hPa
Previous

1 hour ago

KCEF 220856Z AUTO 00000KT 6SM BR CLR 10/10 A3015 RMK AO2 SLP215 T01040102 56004
Observed
Sep-22 @ 08:56 UTC
Visibility
6 SM
Flight Rules
VFR
Conditions
Mist
Cloud Levels
  • Clear skies
Temperature
10°C / 50°F
Dewpoint
10°C / 50°F
Humidity
100%
Altimeter
30.15" Hg
Pressure
1021.02 hPa